Flight Track Log - Related Links

Times and Time Zones

All times are in EDT time to prevent confusion due to time zone crossing. See the TAM3892 flight status page for this flight to view local times or setup timezone preferences in your user account.

Time Position Orientation Groundspeed Altitude Reporting Facility
EDT Latitude Longitude Course Direction KTS MPH feet Rate Location/Type
Sat 05:37:00 PM -6.1333 -36.5866 320° Northwest  Level Estimated
Sat 05:38:00 PM -6.0620 -36.6458 320° Northwest  Level Estimated
Sat 05:39:00 PM -5.9907 -36.7049 320° Northwest  Level Estimated
Sat 05:40:00 PM -5.9194 -36.7640 320° Northwest  Level Estimated
Sat 05:41:00 PM -5.8481 -36.8232 320° Northwest  Level Estimated
Sat 05:42:00 PM -5.7767 -36.8823 320° Northwest  Level Estimated
Sat 05:43:00 PM -5.7054 -36.9413 321° Northwest  Level Estimated
Sat 05:44:00 PM -5.6341 -37.0004 321° Northwest  Level Estimated
Sat 05:45:00 PM -5.5627 -37.0594 321° Northwest  Level Estimated
Sat 05:46:00 PM -5.4914 -37.1185 321° Northwest  Level Estimated
Sat 05:47:00 PM -5.4200 -37.1775 321° Northwest  Level Estimated
Sat 05:48:00 PM -5.3486 -37.2365 321° Northwest  Level Estimated
Sat 05:49:00 PM -5.2773 -37.2955 321° Northwest  Level Estimated
Sat 05:50:00 PM -5.2059 -37.3545 321° Northwest  Level Estimated
Sat 05:51:00 PM -5.1345 -37.4135 321° Northwest  Level Estimated
Sat 05:52:00 PM -5.0631 -37.4724 321° Northwest  Level Estimated
Sat 05:53:00 PM -4.9918 -37.5314 321° Northwest  Level Estimated
Sat 05:54:00 PM -4.9204 -37.5903 321° Northwest  Level Estimated
Sat 05:55:00 PM -4.8490 -37.6492 321° Northwest  Level Estimated
Sat 05:56:00 PM -4.7776 -37.7081 321° Northwest  Level Estimated
Sat 05:57:00 PM -4.7062 -37.7670 321° Northwest  Level Estimated
Sat 05:58:00 PM -4.6347 -37.8259 321° Northwest  Level Estimated
Sat 05:59:00 PM -4.5633 -37.8848 321° Northwest  Level Estimated
Sat 06:00:00 PM -4.4919 -37.9436 321° Northwest  Level Estimated
Sat 06:01:00 PM -4.4205 -38.0025 321° Northwest  Level Estimated
Sat 06:02:00 PM -4.3491 -38.0613 321° Northwest  Level Estimated
Sat 06:03:00 PM -4.2776 -38.1202 321° Northwest  Level Estimated
Sat 06:04:00 PM -4.2062 -38.1790 321° Northwest  Level Estimated
Sat 06:05:00 PM -4.1347 -38.2378 321° Northwest  Level Estimated
Sat 06:06:00 PM -4.0633 -38.2966 321° Northwest  Level Estimated
Sat 06:07:00 PM -3.9918 -38.3553 321° Northwest  Level Estimated
Sat 06:08:00 PM -3.9204 -38.4141 321° Northwest  Level Estimated
Sat 06:09:00 PM -3.8489 -38.4729 321° Northwest  Level Estimated
Sat 06:10:00 PM -3.7774 -38.5316 321° Northwest  Level Estimated
Sat 06:11:00 PM -3.7763 -38.5326 321° Northwest  Level Estimated
Sat 06:12:00 PM -3.7763 -38.5326 127° Southeast  Level Estimated
Sat 06:13:00 PM -3.7763 -38.5326 127° Southeast  Level Estimated
Sat 06:14:00 PM -3.7763 -38.5326 127° Southeast  Level Estimated
Sat 06:15:00 PM -3.7763 -38.5326 127° Southeast  Level Estimated
Sat 06:16:00 PM -3.7763 -38.5326 127° Southeast  Level Estimated
Sat 06:17:00 PM -3.7763 -38.5326 127° Southeast  Level Estimated
Sat 06:18:00 PM -3.7763 -38.5326 127° Southeast  Level Estimated
Sat 06:19:00 PM -3.7763 -38.5326 127° Southeast  Level Estimated
Sat 06:20:00 PM -3.7763 -38.5326 127° Southeast  Level Estimated
Sat 06:21:00 PM -3.7763 -38.5326 127° Southeast  Level Estimated
Sat 06:22:00 PM -3.7763 -38.5326 127° Southeast  Level Estimated
Sat 06:23:00 PM -3.7763 -38.5326 127° Southeast  Level Estimated
Sat 06:24:00 PM -3.7763 -38.5326 127° Southeast  Level Estimated
Sat 06:25:00 PM -3.7763 -38.5326 127° Southeast  Level Estimated
Sat 06:26:00 PM -3.7763 -38.5326 127° Southeast  Level Estimated

Login

Don't have an account? Register now (free) for customized features, flight alerts, and more!